sensor_id;sensor_type;location;lat;lon;timestamp;temperature;humidity
28947;DHT22;16052;50.930;5.326;2022-09-30T00:00:28;12.40;79.60
28947;DHT22;16052;50.930;5.326;2022-09-30T00:02:53;12.30;78.10
28947;DHT22;16052;50.930;5.326;2022-09-30T00:05:22;12.10;83.80
28947;DHT22;16052;50.930;5.326;2022-09-30T00:07:48;12.00;89.50
28947;DHT22;16052;50.930;5.326;2022-09-30T00:10:13;12.00;90.20
28947;DHT22;16052;50.930;5.326;2022-09-30T00:12:41;12.10;90.00
28947;DHT22;16052;50.930;5.326;2022-09-30T00:15:07;12.20;87.90
28947;DHT22;16052;50.930;5.326;2022-09-30T00:17:33;12.40;85.50
28947;DHT22;16052;50.930;5.326;2022-09-30T00:19:58;12.40;80.40
28947;DHT22;16052;50.930;5.326;2022-09-30T00:22:24;12.40;81.20
28947;DHT22;16052;50.930;5.326;2022-09-30T00:24:50;12.30;83.20
28947;DHT22;16052;50.930;5.326;2022-09-30T00:27:15;12.40;79.20
28947;DHT22;16052;50.930;5.326;2022-09-30T00:29:43;12.70;68.90
28947;DHT22;16052;50.930;5.326;2022-09-30T00:32:09;12.80;62.40
28947;DHT22;16052;50.930;5.326;2022-09-30T00:34:35;12.70;66.50
28947;DHT22;16052;50.930;5.326;2022-09-30T00:37:01;12.50;70.00
28947;DHT22;16052;50.930;5.326;2022-09-30T00:39:28;12.10;83.50
28947;DHT22;16052;50.930;5.326;2022-09-30T00:42:01;12.20;83.30
28947;DHT22;16052;50.930;5.326;2022-09-30T00:47:55;11.80;91.80
28947;DHT22;16052;50.930;5.326;2022-09-30T00:50:42;11.70;93.30
28947;DHT22;16052;50.930;5.326;2022-09-30T00:56:03;11.30;95.40
28947;DHT22;16052;50.930;5.326;2022-09-30T00:58:40;11.30;99.30
28947;DHT22;16052;50.930;5.326;2022-09-30T01:01:08;11.20;99.90
28947;DHT22;16052;50.930;5.326;2022-09-30T01:03:43;11.70;96.50
28947;DHT22;16052;50.930;5.326;2022-09-30T01:06:09;11.60;94.80
28947;DHT22;16052;50.930;5.326;2022-09-30T01:08:37;11.50;95.30
28947;DHT22;16052;50.930;5.326;2022-09-30T01:11:04;11.00;99.60
28947;DHT22;16052;50.930;5.326;2022-09-30T01:13:30;11.20;99.90
28947;DHT22;16052;50.930;5.326;2022-09-30T01:27:29;10.80;99.90
28947;DHT22;16052;50.930;5.326;2022-09-30T01:29:59;11.20;99.90
28947;DHT22;16052;50.930;5.326;2022-09-30T01:38:01;11.20;97.70
28947;DHT22;16052;50.930;5.326;2022-09-30T01:40:38;10.70;99.90
28947;DHT22;16052;50.930;5.326;2022-09-30T01:43:14;10.20;99.90
28947;DHT22;16052;50.930;5.326;2022-09-30T01:51:20;10.00;99.90
28947;DHT22;16052;50.930;5.326;2022-09-30T01:53:55;10.20;99.90
28947;DHT22;16052;50.930;5.326;2022-09-30T01:59:25;10.00;99.90
28947;DHT22;16052;50.930;5.326;2022-09-30T02:01:59;10.10;99.90
28947;DHT22;16052;50.930;5.326;2022-09-30T02:04:33;10.20;99.90
28947;DHT22;16052;50.930;5.326;2022-09-30T02:07:04;10.30;99.90
28947;DHT22;16052;50.930;5.326;2022-09-30T02:09:46;10.20;99.90
28947;DHT22;16052;50.930;5.326;2022-09-30T02:12:18;10.20;99.90
28947;DHT22;16052;50.930;5.326;2022-09-30T02:14:49;10.20;99.90
28947;DHT22;16052;50.930;5.326;2022-09-30T02:17:21;10.30;99.90
28947;DHT22;16052;50.930;5.326;2022-09-30T02:20:02;10.40;99.90
28947;DHT22;16052;50.930;5.326;2022-09-30T02:22:32;10.20;99.90
28947;DHT22;16052;50.930;5.326;2022-09-30T02:25:06;10.10;99.90
28947;DHT22;16052;50.930;5.326;2022-09-30T02:27:38;10.20;99.90
28947;DHT22;16052;50.930;5.326;2022-09-30T02:30:07;10.30;99.90
28947;DHT22;16052;50.930;5.326;2022-09-30T02:32:47;10.60;99.90
28947;DHT22;16052;50.930;5.326;2022-09-30T02:38:01;10.70;99.90
28947;DHT22;16052;50.930;5.326;2022-09-30T02:41:00;10.60;99.90
28947;DHT22;16052;50.930;5.326;2022-09-30T02:43:22;10.20;99.90
28947;DHT22;16052;50.930;5.326;2022-09-30T02:55:00;9.70;99.90
28947;DHT22;16052;50.930;5.326;2022-09-30T03:00:15;9.70;99.90
28947;DHT22;16052;50.930;5.326;2022-09-30T03:02:41;9.50;99.90
28947;DHT22;16052;50.930;5.326;2022-09-30T03:05:08;9.70;99.90
28947;DHT22;16052;50.930;5.326;2022-09-30T03:07:35;9.40;99.90
28947;DHT22;16052;50.930;5.326;2022-09-30T03:10:00;9.50;99.90
28947;DHT22;16052;50.930;5.326;2022-09-30T03:12:41;9.50;99.90
28947;DHT22;16052;50.930;5.326;2022-09-30T03:15:32;9.50;99.90
28947;DHT22;16052;50.930;5.326;2022-09-30T03:20:53;9.30;99.90
28947;DHT22;16052;50.930;5.326;2022-09-30T03:24:04;9.30;99.90
28947;DHT22;16052;50.930;5.326;2022-09-30T03:29:48;9.40;99.90
28947;DHT22;16052;50.930;5.326;2022-09-30T03:43:09;9.90;99.90
28947;DHT22;16052;50.930;5.326;2022-09-30T03:46:09;9.30;99.90
28947;DHT22;16052;50.930;5.326;2022-09-30T03:48:37;9.10;99.90
28947;DHT22;16052;50.930;5.326;2022-09-30T03:51:04;9.40;99.90
28947;DHT22;16052;50.930;5.326;2022-09-30T03:53:37;9.60;99.90
28947;DHT22;16052;50.930;5.326;2022-09-30T03:56:02;9.40;99.90
28947;DHT22;16052;50.930;5.326;2022-09-30T03:58:28;9.50;99.90
28947;DHT22;16052;50.930;5.326;2022-09-30T04:00:54;9.20;99.90
28947;DHT22;16052;50.930;5.326;2022-09-30T04:03:21;9.10;99.90
28947;DHT22;16052;50.930;5.326;2022-09-30T04:05:48;9.30;99.90
28947;DHT22;16052;50.930;5.326;2022-09-30T04:08:14;9.30;99.90
28947;DHT22;16052;50.930;5.326;2022-09-30T04:10:40;9.40;99.90
28947;DHT22;16052;50.930;5.326;2022-09-30T04:13:07;9.20;99.90
28947;DHT22;16052;50.930;5.326;2022-09-30T04:15:33;9.40;99.90
28947;DHT22;16052;50.930;5.326;2022-09-30T04:17:58;9.80;99.90
28947;DHT22;16052;50.930;5.326;2022-09-30T04:20:24;9.80;99.90
28947;DHT22;16052;50.930;5.326;2022-09-30T04:22:50;10.00;99.90
28947;DHT22;16052;50.930;5.326;2022-09-30T04:25:16;10.00;99.90
28947;DHT22;16052;50.930;5.326;2022-09-30T04:27:41;10.10;99.90
28947;DHT22;16052;50.930;5.326;2022-09-30T04:30:07;10.00;99.90
28947;DHT22;16052;50.930;5.326;2022-09-30T04:32:33;10.00;99.90
28947;DHT22;16052;50.930;5.326;2022-09-30T04:34:58;10.20;99.90
28947;DHT22;16052;50.930;5.326;2022-09-30T04:37:24;10.30;99.90
28947;DHT22;16052;50.930;5.326;2022-09-30T04:39:50;10.10;99.90
28947;DHT22;16052;50.930;5.326;2022-09-30T04:42:15;10.00;99.90
28947;DHT22;16052;50.930;5.326;2022-09-30T04:44:42;9.80;99.90
28947;DHT22;16052;50.930;5.326;2022-09-30T04:47:08;9.80;99.90
28947;DHT22;16052;50.930;5.326;2022-09-30T04:49:34;9.50;99.90
28947;DHT22;16052;50.930;5.326;2022-09-30T04:51:59;9.40;99.90
28947;DHT22;16052;50.930;5.326;2022-09-30T04:54:25;9.50;99.90
28947;DHT22;16052;50.930;5.326;2022-09-30T04:56:51;9.60;99.90
28947;DHT22;16052;50.930;5.326;2022-09-30T04:59:16;9.50;99.90
28947;DHT22;16052;50.930;5.326;2022-09-30T05:01:42;9.30;99.90
28947;DHT22;16052;50.930;5.326;2022-09-30T05:04:09;9.40;99.90
28947;DHT22;16052;50.930;5.326;2022-09-30T05:06:37;9.30;99.90
28947;DHT22;16052;50.930;5.326;2022-09-30T05:09:05;9.30;99.90
28947;DHT22;16052;50.930;5.326;2022-09-30T05:11:31;9.30;99.90
28947;DHT22;16052;50.930;5.326;2022-09-30T05:13:57;9.40;99.90
28947;DHT22;16052;50.930;5.326;2022-09-30T05:16:23;9.20;99.90
28947;DHT22;16052;50.930;5.326;2022-09-30T05:18:48;9.40;99.90
28947;DHT22;16052;50.930;5.326;2022-09-30T05:21:16;9.30;99.90
28947;DHT22;16052;50.930;5.326;2022-09-30T05:23:42;9.20;99.90
28947;DHT22;16052;50.930;5.326;2022-09-30T05:26:08;9.30;99.90
28947;DHT22;16052;50.930;5.326;2022-09-30T05:28:33;9.40;99.90
28947;DHT22;16052;50.930;5.326;2022-09-30T05:31:03;9.30;99.90
28947;DHT22;16052;50.930;5.326;2022-09-30T05:33:30;9.20;99.90
28947;DHT22;16052;50.930;5.326;2022-09-30T05:36:02;9.20;99.90
28947;DHT22;16052;50.930;5.326;2022-09-30T05:38:28;9.30;99.90
28947;DHT22;16052;50.930;5.326;2022-09-30T05:40:54;9.30;99.90
28947;DHT22;16052;50.930;5.326;2022-09-30T05:43:20;9.20;99.90
28947;DHT22;16052;50.930;5.326;2022-09-30T05:45:53;9.10;99.90
28947;DHT22;16052;50.930;5.326;2022-09-30T05:48:19;9.00;99.90
28947;DHT22;16052;50.930;5.326;2022-09-30T05:50:45;9.00;99.90
28947;DHT22;16052;50.930;5.326;2022-09-30T05:53:17;9.00;99.90
28947;DHT22;16052;50.930;5.326;2022-09-30T05:55:47;8.80;99.90
28947;DHT22;16052;50.930;5.326;2022-09-30T05:58:14;9.00;99.90
28947;DHT22;16052;50.930;5.326;2022-09-30T06:00:41;9.00;99.90
28947;DHT22;16052;50.930;5.326;2022-09-30T06:03:07;9.30;99.90
28947;DHT22;16052;50.930;5.326;2022-09-30T06:05:34;9.60;99.90
28947;DHT22;16052;50.930;5.326;2022-09-30T06:07:59;9.40;99.90
28947;DHT22;16052;50.930;5.326;2022-09-30T06:10:25;9.30;99.90
28947;DHT22;16052;50.930;5.326;2022-09-30T06:12:51;8.80;99.90
28947;DHT22;16052;50.930;5.326;2022-09-30T06:15:17;9.00;99.90
28947;DHT22;16052;50.930;5.326;2022-09-30T06:17:43;8.80;99.90
28947;DHT22;16052;50.930;5.326;2022-09-30T06:20:09;9.20;99.90
28947;DHT22;16052;50.930;5.326;2022-09-30T06:22:35;9.10;99.90
28947;DHT22;16052;50.930;5.326;2022-09-30T06:25:03;8.90;99.90
28947;DHT22;16052;50.930;5.326;2022-09-30T06:27:29;9.30;99.90
28947;DHT22;16052;50.930;5.326;2022-09-30T06:29:55;9.40;99.90
28947;DHT22;16052;50.930;5.326;2022-09-30T06:32:22;9.20;99.90
28947;DHT22;16052;50.930;5.326;2022-09-30T06:34:51;9.30;99.90
28947;DHT22;16052;50.930;5.326;2022-09-30T06:37:17;9.00;99.90
28947;DHT22;16052;50.930;5.326;2022-09-30T06:39:43;9.30;99.90
28947;DHT22;16052;50.930;5.326;2022-09-30T06:42:08;9.60;99.90
28947;DHT22;16052;50.930;5.326;2022-09-30T06:44:35;9.40;99.90
28947;DHT22;16052;50.930;5.326;2022-09-30T06:47:01;9.00;99.90
28947;DHT22;16052;50.930;5.326;2022-09-30T06:49:27;9.10;99.90
28947;DHT22;16052;50.930;5.326;2022-09-30T06:51:53;9.40;99.90
28947;DHT22;16052;50.930;5.326;2022-09-30T06:54:18;9.60;99.90
28947;DHT22;16052;50.930;5.326;2022-09-30T06:56:47;9.70;99.90
28947;DHT22;16052;50.930;5.326;2022-09-30T06:59:13;9.60;99.90
28947;DHT22;16052;50.930;5.326;2022-09-30T07:01:41;9.50;99.90
28947;DHT22;16052;50.930;5.326;2022-09-30T07:04:10;9.50;99.90
28947;DHT22;16052;50.930;5.326;2022-09-30T07:06:36;9.20;99.90
28947;DHT22;16052;50.930;5.326;2022-09-30T07:09:06;9.30;99.90
28947;DHT22;16052;50.930;5.326;2022-09-30T07:11:32;9.40;99.90
28947;DHT22;16052;50.930;5.326;2022-09-30T07:13:58;9.60;99.90
28947;DHT22;16052;50.930;5.326;2022-09-30T07:16:24;9.60;99.90
28947;DHT22;16052;50.930;5.326;2022-09-30T07:18:50;9.80;99.90
28947;DHT22;16052;50.930;5.326;2022-09-30T07:21:17;9.80;99.90
28947;DHT22;16052;50.930;5.326;2022-09-30T07:23:44;9.70;99.90
28947;DHT22;16052;50.930;5.326;2022-09-30T07:26:14;10.00;99.90
28947;DHT22;16052;50.930;5.326;2022-09-30T07:28:41;10.00;99.90
28947;DHT22;16052;50.930;5.326;2022-09-30T07:31:28;10.00;99.90
28947;DHT22;16052;50.930;5.326;2022-09-30T07:33:53;10.10;99.90
28947;DHT22;16052;50.930;5.326;2022-09-30T07:36:22;10.10;99.90
28947;DHT22;16052;50.930;5.326;2022-09-30T07:38:52;10.10;99.90
28947;DHT22;16052;50.930;5.326;2022-09-30T07:41:21;10.10;99.90
28947;DHT22;16052;50.930;5.326;2022-09-30T07:43:50;10.10;99.90
28947;DHT22;16052;50.930;5.326;2022-09-30T07:46:18;10.10;99.90
28947;DHT22;16052;50.930;5.326;2022-09-30T07:48:50;10.00;99.90
28947;DHT22;16052;50.930;5.326;2022-09-30T07:51:35;10.10;99.90
28947;DHT22;16052;50.930;5.326;2022-09-30T07:54:13;10.20;99.90
28947;DHT22;16052;50.930;5.326;2022-09-30T07:56:39;10.40;99.90
28947;DHT22;16052;50.930;5.326;2022-09-30T07:59:09;10.60;99.90
28947;DHT22;16052;50.930;5.326;2022-09-30T08:01:35;10.80;99.90
28947;DHT22;16052;50.930;5.326;2022-09-30T08:04:02;10.80;99.90
28947;DHT22;16052;50.930;5.326;2022-09-30T08:06:30;10.90;99.90
28947;DHT22;16052;50.930;5.326;2022-09-30T08:08:56;11.00;99.90
28947;DHT22;16052;50.930;5.326;2022-09-30T08:11:23;11.20;99.90
28947;DHT22;16052;50.930;5.326;2022-09-30T08:13:53;11.20;99.90
28947;DHT22;16052;50.930;5.326;2022-09-30T08:16:22;11.30;99.90
28947;DHT22;16052;50.930;5.326;2022-09-30T08:18:56;11.40;99.90
28947;DHT22;16052;50.930;5.326;2022-09-30T08:21:23;11.60;99.90
28947;DHT22;16052;50.930;5.326;2022-09-30T08:23:48;11.70;99.90
28947;DHT22;16052;50.930;5.326;2022-09-30T08:26:14;11.70;99.90
28947;DHT22;16052;50.930;5.326;2022-09-30T08:28:43;11.90;99.90
28947;DHT22;16052;50.930;5.326;2022-09-30T08:31:14;12.10;99.90
28947;DHT22;16052;50.930;5.326;2022-09-30T08:33:41;12.20;99.90
28947;DHT22;16052;50.930;5.326;2022-09-30T08:36:09;12.20;99.90
28947;DHT22;16052;50.930;5.326;2022-09-30T08:38:35;12.20;99.90
28947;DHT22;16052;50.930;5.326;2022-09-30T08:49:28;12.70;99.90
28947;DHT22;16052;50.930;5.326;2022-09-30T08:51:59;12.80;99.90
28947;DHT22;16052;50.930;5.326;2022-09-30T08:54:30;12.60;99.90
28947;DHT22;16052;50.930;5.326;2022-09-30T08:56:57;12.70;99.90
28947;DHT22;16052;50.930;5.326;2022-09-30T08:59:34;12.80;99.90
28947;DHT22;16052;50.930;5.326;2022-09-30T09:02:22;13.00;99.90
28947;DHT22;16052;50.930;5.326;2022-09-30T09:04:50;13.20;99.90
28947;DHT22;16052;50.930;5.326;2022-09-30T09:10:36;13.60;99.90
28947;DHT22;16052;50.930;5.326;2022-09-30T09:13:43;13.60;99.90
28947;DHT22;16052;50.930;5.326;2022-09-30T09:16:25;13.60;99.90
28947;DHT22;16052;50.930;5.326;2022-09-30T09:21:56;13.80;99.90
28947;DHT22;16052;50.930;5.326;2022-09-30T09:25:08;13.80;99.90
28947;DHT22;16052;50.930;5.326;2022-09-30T09:30:11;14.20;99.90
28947;DHT22;16052;50.930;5.326;2022-09-30T09:32:37;14.20;97.20
28947;DHT22;16052;50.930;5.326;2022-09-30T09:35:39;14.30;95.70
28947;DHT22;16052;50.930;5.326;2022-09-30T09:38:16;14.40;91.20
28947;DHT22;16052;50.930;5.326;2022-09-30T09:46:21;14.60;90.60
28947;DHT22;16052;50.930;5.326;2022-09-30T09:48:53;14.60;88.00
28947;DHT22;16052;50.930;5.326;2022-09-30T09:51:27;14.70;81.10
28947;DHT22;16052;50.930;5.326;2022-09-30T09:53:57;14.70;81.00
28947;DHT22;16052;50.930;5.326;2022-09-30T09:56:29;14.70;84.40
28947;DHT22;16052;50.930;5.326;2022-09-30T09:59:16;14.80;77.20
28947;DHT22;16052;50.930;5.326;2022-09-30T10:01:48;14.80;71.70
28947;DHT22;16052;50.930;5.326;2022-09-30T10:04:25;14.80;77.00
28947;DHT22;16052;50.930;5.326;2022-09-30T10:06:57;14.80;79.80
28947;DHT22;16052;50.930;5.326;2022-09-30T10:14:37;15.00;68.00
28947;DHT22;16052;50.930;5.326;2022-09-30T10:17:19;15.30;65.90
28947;DHT22;16052;50.930;5.326;2022-09-30T10:19:51;15.40;62.40
28947;DHT22;16052;50.930;5.326;2022-09-30T10:22:23;15.50;59.70
28947;DHT22;16052;50.930;5.326;2022-09-30T10:24:50;15.40;56.90
28947;DHT22;16052;50.930;5.326;2022-09-30T10:27:27;15.50;54.30
28947;DHT22;16052;50.930;5.326;2022-09-30T10:29:54;15.60;53.60
28947;DHT22;16052;50.930;5.326;2022-09-30T10:32:20;15.70;50.30
28947;DHT22;16052;50.930;5.326;2022-09-30T10:34:54;15.70;43.30
28947;DHT22;16052;50.930;5.326;2022-09-30T10:37:22;15.70;37.30
28947;DHT22;16052;50.930;5.326;2022-09-30T10:40:07;15.60;41.00
28947;DHT22;16052;50.930;5.326;2022-09-30T10:42:37;15.40;36.00
28947;DHT22;16052;50.930;5.326;2022-09-30T10:45:32;15.50;37.00
28947;DHT22;16052;50.930;5.326;2022-09-30T10:48:04;15.50;23.10
28947;DHT22;16052;50.930;5.326;2022-09-30T10:50:31;15.50;26.00
28947;DHT22;16052;50.930;5.326;2022-09-30T10:53:11;15.50;35.50
28947;DHT22;16052;50.930;5.326;2022-09-30T10:55:44;15.60;31.40
28947;DHT22;16052;50.930;5.326;2022-09-30T11:01:20;15.50;31.50
28947;DHT22;16052;50.930;5.326;2022-09-30T11:06:45;15.70;37.10
28947;DHT22;16052;50.930;5.326;2022-09-30T11:09:36;15.60;21.70
28947;DHT22;16052;50.930;5.326;2022-09-30T11:12:19;15.70;25.80
28947;DHT22;16052;50.930;5.326;2022-09-30T11:17:33;15.90;26.40
28947;DHT22;16052;50.930;5.326;2022-09-30T11:20:16;15.80;29.20
28947;DHT22;16052;50.930;5.326;2022-09-30T11:25:45;16.00;24.40
28947;DHT22;16052;50.930;5.326;2022-09-30T11:28:33;16.00;15.60
28947;DHT22;16052;50.930;5.326;2022-09-30T11:31:27;15.90;9.70
28947;DHT22;16052;50.930;5.326;2022-09-30T11:34:21;16.00;21.50
28947;DHT22;16052;50.930;5.326;2022-09-30T11:40:10;16.40;15.60
28947;DHT22;16052;50.930;5.326;2022-09-30T12:00:20;16.40;11.30
28947;DHT22;16052;50.930;5.326;2022-09-30T12:02:55;16.20;7.40
28947;DHT22;16052;50.930;5.326;2022-09-30T12:05:28;16.10;15.40
28947;DHT22;16052;50.930;5.326;2022-09-30T12:08:16;16.20;17.20
28947;DHT22;16052;50.930;5.326;2022-09-30T12:10:47;16.20;11.20
28947;DHT22;16052;50.930;5.326;2022-09-30T12:13:21;16.20;18.30
28947;DHT22;16052;50.930;5.326;2022-09-30T12:15:50;16.20;14.00
28947;DHT22;16052;50.930;5.326;2022-09-30T12:18:20;16.20;12.20
28947;DHT22;16052;50.930;5.326;2022-09-30T12:21:08;16.00;16.40
28947;DHT22;16052;50.930;5.326;2022-09-30T12:23:46;15.90;15.20
28947;DHT22;16052;50.930;5.326;2022-09-30T12:26:15;16.00;24.50
28947;DHT22;16052;50.930;5.326;2022-09-30T12:28:49;16.10;22.20
28947;DHT22;16052;50.930;5.326;2022-09-30T12:31:59;16.30;21.00
28947;DHT22;16052;50.930;5.326;2022-09-30T12:43:25;16.50;1.80
28947;DHT22;16052;50.930;5.326;2022-09-30T12:48:44;16.60;1.00
28947;DHT22;16052;50.930;5.326;2022-09-30T12:51:32;16.50;1.00
28947;DHT22;16052;50.930;5.326;2022-09-30T12:54:27;16.50;1.00
28947;DHT22;16052;50.930;5.326;2022-09-30T12:57:00;16.50;1.00
28947;DHT22;16052;50.930;5.326;2022-09-30T12:59:32;16.70;1.00
28947;DHT22;16052;50.930;5.326;2022-09-30T13:02:00;16.90;1.00
28947;DHT22;16052;50.930;5.326;2022-09-30T13:04:36;16.90;1.00
28947;DHT22;16052;50.930;5.326;2022-09-30T13:07:07;16.90;1.00
28947;DHT22;16052;50.930;5.326;2022-09-30T13:10:23;17.00;1.00
28947;DHT22;16052;50.930;5.326;2022-09-30T13:23:40;16.80;1.00
28947;DHT22;16052;50.930;5.326;2022-09-30T13:28:52;16.70;1.00
28947;DHT22;16052;50.930;5.326;2022-09-30T13:31:21;16.80;1.00
28947;DHT22;16052;50.930;5.326;2022-09-30T13:47:38;17.00;1.00
28947;DHT22;16052;50.930;5.326;2022-09-30T13:50:50;17.20;1.00
28947;DHT22;16052;50.930;5.326;2022-09-30T13:53:26;17.20;1.00
28947;DHT22;16052;50.930;5.326;2022-09-30T13:55:54;17.40;1.00
28947;DHT22;16052;50.930;5.326;2022-09-30T14:01:28;17.40;1.00
28947;DHT22;16052;50.930;5.326;2022-09-30T14:04:40;17.40;1.00
28947;DHT22;16052;50.930;5.326;2022-09-30T14:07:27;17.30;1.00
28947;DHT22;16052;50.930;5.326;2022-09-30T14:16:17;17.30;1.00
28947;DHT22;16052;50.930;5.326;2022-09-30T14:21:45;17.30;1.00
28947;DHT22;16052;50.930;5.326;2022-09-30T14:24:25;17.40;1.00
28947;DHT22;16052;50.930;5.326;2022-09-30T14:30:09;17.40;1.00
28947;DHT22;16052;50.930;5.326;2022-09-30T14:32:45;17.40;1.00
28947;DHT22;16052;50.930;5.326;2022-09-30T14:35:44;17.50;1.00
28947;DHT22;16052;50.930;5.326;2022-09-30T14:38:20;17.50;1.00
28947;DHT22;16052;50.930;5.326;2022-09-30T14:40:55;17.70;1.00
28947;DHT22;16052;50.930;5.326;2022-09-30T14:43:27;17.70;1.00
28947;DHT22;16052;50.930;5.326;2022-09-30T14:48:51;17.60;1.00
28947;DHT22;16052;50.930;5.326;2022-09-30T14:51:18;17.60;1.00
28947;DHT22;16052;50.930;5.326;2022-09-30T14:56:21;17.40;1.00
28947;DHT22;16052;50.930;5.326;2022-09-30T14:58:52;17.50;1.00
28947;DHT22;16052;50.930;5.326;2022-09-30T15:01:19;17.60;1.00
28947;DHT22;16052;50.930;5.326;2022-09-30T15:04:11;17.70;1.00
28947;DHT22;16052;50.930;5.326;2022-09-30T15:06:42;17.70;1.00
28947;DHT22;16052;50.930;5.326;2022-09-30T15:09:17;17.60;1.00
28947;DHT22;16052;50.930;5.326;2022-09-30T15:11:45;17.40;1.00
28947;DHT22;16052;50.930;5.326;2022-09-30T15:14:19;17.30;1.00
28947;DHT22;16052;50.930;5.326;2022-09-30T15:16:53;17.30;1.00
28947;DHT22;16052;50.930;5.326;2022-09-30T15:19:30;17.30;1.00
28947;DHT22;16052;50.930;5.326;2022-09-30T15:22:01;17.30;1.00
28947;DHT22;16052;50.930;5.326;2022-09-30T15:24:28;17.20;1.00
28947;DHT22;16052;50.930;5.326;2022-09-30T15:26:58;17.20;1.00
28947;DHT22;16052;50.930;5.326;2022-09-30T15:29:24;17.30;1.00
28947;DHT22;16052;50.930;5.326;2022-09-30T15:32:03;17.30;1.00
28947;DHT22;16052;50.930;5.326;2022-09-30T15:34:29;17.40;1.00
28947;DHT22;16052;50.930;5.326;2022-09-30T15:37:01;17.40;1.00
28947;DHT22;16052;50.930;5.326;2022-09-30T15:39:36;17.40;1.00
28947;DHT22;16052;50.930;5.326;2022-09-30T15:44:53;17.50;1.00
28947;DHT22;16052;50.930;5.326;2022-09-30T15:47:19;17.40;1.00
28947;DHT22;16052;50.930;5.326;2022-09-30T15:49:46;17.30;1.00
28947;DHT22;16052;50.930;5.326;2022-09-30T15:54:53;17.30;1.00
28947;DHT22;16052;50.930;5.326;2022-09-30T15:57:47;17.30;1.00
28947;DHT22;16052;50.930;5.326;2022-09-30T16:00:34;17.30;1.00
28947;DHT22;16052;50.930;5.326;2022-09-30T16:03:11;17.20;1.00
28947;DHT22;16052;50.930;5.326;2022-09-30T16:05:43;17.30;1.00
28947;DHT22;16052;50.930;5.326;2022-09-30T16:08:09;17.30;1.00
28947;DHT22;16052;50.930;5.326;2022-09-30T16:10:38;17.40;1.00
28947;DHT22;16052;50.930;5.326;2022-09-30T16:13:04;17.40;1.00
28947;DHT22;16052;50.930;5.326;2022-09-30T16:15:38;17.40;1.00
28947;DHT22;16052;50.930;5.326;2022-09-30T16:18:05;17.50;1.00
28947;DHT22;16052;50.930;5.326;2022-09-30T16:20:30;17.40;1.00
28947;DHT22;16052;50.930;5.326;2022-09-30T16:22:56;17.30;1.00
28947;DHT22;16052;50.930;5.326;2022-09-30T16:25:30;17.40;1.00
28947;DHT22;16052;50.930;5.326;2022-09-30T16:30:25;17.30;1.00
28947;DHT22;16052;50.930;5.326;2022-09-30T16:32:54;17.20;1.00
28947;DHT22;16052;50.930;5.326;2022-09-30T16:35:24;17.10;1.00
28947;DHT22;16052;50.930;5.326;2022-09-30T16:37:56;17.00;1.00
28947;DHT22;16052;50.930;5.326;2022-09-30T16:40:24;17.00;1.00
28947;DHT22;16052;50.930;5.326;2022-09-30T16:42:51;16.90;1.00
28947;DHT22;16052;50.930;5.326;2022-09-30T16:45:21;16.90;1.00
28947;DHT22;16052;50.930;5.326;2022-09-30T16:47:47;16.80;1.00
28947;DHT22;16052;50.930;5.326;2022-09-30T16:52:46;16.50;1.00
28947;DHT22;16052;50.930;5.326;2022-09-30T16:55:11;16.40;1.00
28947;DHT22;16052;50.930;5.326;2022-09-30T16:57:37;16.40;1.00
28947;DHT22;16052;50.930;5.326;2022-09-30T17:00:04;16.20;1.00
28947;DHT22;16052;50.930;5.326;2022-09-30T17:02:30;16.30;1.00
28947;DHT22;16052;50.930;5.326;2022-09-30T17:04:55;16.30;1.00
28947;DHT22;16052;50.930;5.326;2022-09-30T17:07:21;16.30;1.00
28947;DHT22;16052;50.930;5.326;2022-09-30T17:09:48;16.20;1.00
28947;DHT22;16052;50.930;5.326;2022-09-30T17:12:13;16.20;1.00
28947;DHT22;16052;50.930;5.326;2022-09-30T17:14:40;16.10;1.00
28947;DHT22;16052;50.930;5.326;2022-09-30T17:17:08;16.10;1.00
28947;DHT22;16052;50.930;5.326;2022-09-30T17:19:36;16.20;1.00
28947;DHT22;16052;50.930;5.326;2022-09-30T17:22:02;16.10;1.00
28947;DHT22;16052;50.930;5.326;2022-09-30T17:24:29;16.10;1.00
28947;DHT22;16052;50.930;5.326;2022-09-30T17:26:55;16.10;1.00
28947;DHT22;16052;50.930;5.326;2022-09-30T17:29:20;16.20;1.00
28947;DHT22;16052;50.930;5.326;2022-09-30T17:31:46;16.10;1.00
28947;DHT22;16052;50.930;5.326;2022-09-30T17:34:12;16.00;1.00
28947;DHT22;16052;50.930;5.326;2022-09-30T17:36:38;16.10;1.00
28947;DHT22;16052;50.930;5.326;2022-09-30T17:39:04;16.00;1.00
28947;DHT22;16052;50.930;5.326;2022-09-30T17:41:32;16.10;1.00
28947;DHT22;16052;50.930;5.326;2022-09-30T17:44:18;15.90;1.00
28947;DHT22;16052;50.930;5.326;2022-09-30T17:46:45;15.70;1.00
28947;DHT22;16052;50.930;5.326;2022-09-30T17:49:13;15.70;1.00
28947;DHT22;16052;50.930;5.326;2022-09-30T17:51:41;15.70;1.00
28947;DHT22;16052;50.930;5.326;2022-09-30T17:54:07;15.40;1.00
28947;DHT22;16052;50.930;5.326;2022-09-30T17:56:33;15.20;5.60
28947;DHT22;16052;50.930;5.326;2022-09-30T17:58:59;15.20;8.30
28947;DHT22;16052;50.930;5.326;2022-09-30T18:01:26;15.20;5.70
28947;DHT22;16052;50.930;5.326;2022-09-30T18:03:57;15.30;6.40
28947;DHT22;16052;50.930;5.326;2022-09-30T18:06:23;15.20;8.80
28947;DHT22;16052;50.930;5.326;2022-09-30T18:08:50;15.10;10.90
28947;DHT22;16052;50.930;5.326;2022-09-30T18:11:23;15.00;14.00
28947;DHT22;16052;50.930;5.326;2022-09-30T18:13:52;15.00;16.30
28947;DHT22;16052;50.930;5.326;2022-09-30T18:16:20;14.90;16.30
28947;DHT22;16052;50.930;5.326;2022-09-30T18:18:49;15.00;18.70
28947;DHT22;16052;50.930;5.326;2022-09-30T18:21:15;15.00;18.60
28947;DHT22;16052;50.930;5.326;2022-09-30T18:23:41;14.90;20.30
28947;DHT22;16052;50.930;5.326;2022-09-30T18:26:06;14.90;22.70
28947;DHT22;16052;50.930;5.326;2022-09-30T18:28:32;14.80;23.90
28947;DHT22;16052;50.930;5.326;2022-09-30T18:31:05;14.70;27.00
28947;DHT22;16052;50.930;5.326;2022-09-30T18:33:32;14.80;25.70
28947;DHT22;16052;50.930;5.326;2022-09-30T18:36:03;14.70;28.70
28947;DHT22;16052;50.930;5.326;2022-09-30T18:38:33;14.60;29.40
28947;DHT22;16052;50.930;5.326;2022-09-30T18:40:59;14.60;30.00
28947;DHT22;16052;50.930;5.326;2022-09-30T18:43:25;14.60;31.40
28947;DHT22;16052;50.930;5.326;2022-09-30T18:45:53;14.60;32.70
28947;DHT22;16052;50.930;5.326;2022-09-30T18:48:24;14.70;28.50
28947;DHT22;16052;50.930;5.326;2022-09-30T18:50:53;14.70;29.80
28947;DHT22;16052;50.930;5.326;2022-09-30T18:53:20;14.40;33.90
28947;DHT22;16052;50.930;5.326;2022-09-30T18:55:46;14.40;36.90
28947;DHT22;16052;50.930;5.326;2022-09-30T18:58:13;14.30;40.20
28947;DHT22;16052;50.930;5.326;2022-09-30T19:00:42;14.40;36.60
28947;DHT22;16052;50.930;5.326;2022-09-30T19:03:08;14.30;41.20
28947;DHT22;16052;50.930;5.326;2022-09-30T19:05:38;14.20;43.60
28947;DHT22;16052;50.930;5.326;2022-09-30T19:08:05;14.10;44.00
28947;DHT22;16052;50.930;5.326;2022-09-30T19:10:31;14.20;40.60
28947;DHT22;16052;50.930;5.326;2022-09-30T19:12:58;14.00;45.80
28947;DHT22;16052;50.930;5.326;2022-09-30T19:15:25;14.10;44.30
28947;DHT22;16052;50.930;5.326;2022-09-30T19:17:53;14.20;42.00